Time;durP1;ratioP1;P1;durP2;ratioP2;P2;SDS_P1;SDS_P2;PMS_P1;PMS_P2;Temp;Humidity;BMP_temperature;BMP_pressure;BME280_temperature;BME280_humidity;BME280_pressure;Samples;Min_cycle;Max_cycle;Signal;HPM_P1;HPM_P2
2024/04/19 00:01:08;;;;;;;3.70;2.42;;;;;;;;;;5408715;26;20013;-70
2024/04/19 00:03:34;;;;;;;1.55;1.45;;;;;;;;;;5432780;26;20045;-70
2024/04/19 00:06:01;;;;;;;2.20;1.40;;;;;;;;;;5413773;26;20003;-70
2024/04/19 00:08:27;;;;;;;3.85;2.00;;;;;;;;;;5417781;26;20446;-70
2024/04/19 00:10:55;;;;;;;7.60;2.00;;;;;;;;;;5436380;26;20005;-70
2024/04/19 00:13:21;;;;;;;1.90;1.77;;;;;;;;;;5437403;26;20030;-71
2024/04/19 00:15:48;;;;;;;5.15;1.65;;;;;;;;;;5439331;26;20007;-70
2024/04/19 00:18:14;;;;;;;2.00;1.80;;;;;;;;;;5443907;26;20359;-70
2024/04/19 00:20:40;;;;;;;7.07;1.75;;;;;;;;;;5436832;26;20010;-70
2024/04/19 00:23:06;;;;;;;3.85;1.88;;;;;;;;;;5436011;26;20002;-70
2024/04/19 00:25:36;;;;;;;1.90;1.58;;;;;;;;;;5404984;26;20003;-70
2024/04/19 00:28:02;;;;;;;3.13;1.60;;;;;;;;;;5407249;26;20424;-70
2024/04/19 00:30:28;;;;;;;1.80;1.70;;;;;;;;;;5437466;26;20374;-70
2024/04/19 00:32:55;;;;;;;1.80;1.70;;;;;;;;;;5437633;26;20335;-70
2024/04/19 00:35:21;;;;;;;12.50;2.05;;;;;;;;;;5410165;26;20010;-70
2024/04/19 00:37:47;;;;;;;1.92;1.83;;;;;;;;;;5437842;26;20005;-70
2024/04/19 00:40:14;;;;;;;1.92;1.52;;;;;;;;;;5437543;26;20015;-70
2024/04/19 00:42:41;;;;;;;2.17;1.60;;;;;;;;;;5413869;26;20459;-70
2024/04/19 00:45:14;;;;;;;3.83;1.45;;;;;;;;;;5406223;26;20010;-70
2024/04/19 00:47:43;;;;;;;1.60;1.50;;;;;;;;;;5439191;26;20007;-70
2024/04/19 00:50:10;;;;;;;1.60;1.50;;;;;;;;;;5446747;26;20081;-70
2024/04/19 00:52:36;;;;;;;2.10;1.95;;;;;;;;;;5436710;26;19995;-70
2024/04/19 00:55:03;;;;;;;1.70;1.60;;;;;;;;;;5440744;26;20003;-71
2024/04/19 00:57:29;;;;;;;2.97;2.35;;;;;;;;;;5419975;26;20062;-71
2024/04/19 00:59:56;;;;;;;1.75;1.63;;;;;;;;;;5412743;26;20509;-69
2024/04/19 01:02:22;;;;;;;2.65;1.85;;;;;;;;;;5438899;26;19999;-71
2024/04/19 01:04:49;;;;;;;3.80;1.70;;;;;;;;;;5439066;26;20007;-70
2024/04/19 01:07:16;;;;;;;2.05;1.73;;;;;;;;;;5418418;26;20464;-70
2024/04/19 01:09:42;;;;;;;5.00;1.85;;;;;;;;;;5399593;26;20003;-64
2024/04/19 01:12:08;;;;;;;2.10;1.90;;;;;;;;;;5417024;26;20032;-64
2024/04/19 01:14:34;;;;;;;1.80;1.65;;;;;;;;;;5415004;26;20003;-64
2024/04/19 01:17:01;;;;;;;2.10;1.90;;;;;;;;;;5402610;26;20087;-64
2024/04/19 01:19:27;;;;;;;3.60;2.08;;;;;;;;;;5419612;26;20000;-64
2024/04/19 01:21:53;;;;;;;4.18;2.03;;;;;;;;;;5430598;26;19995;-64
2024/04/19 01:24:37;;;;;;;2.83;1.83;;;;;;;;;;5429128;26;20605;-64
2024/04/19 01:27:04;;;;;;;4.10;2.08;;;;;;;;;;5391367;26;20379;-64
2024/04/19 01:29:30;;;;;;;7.80;1.60;;;;;;;;;;5432347;26;20002;-64
2024/04/19 01:31:57;;;;;;;1.35;1.35;;;;;;;;;;5425713;26;20021;-64
2024/04/19 01:34:23;;;;;;;1.92;1.80;;;;;;;;;;5425090;26;20010;-64
2024/04/19 01:36:50;;;;;;;1.83;1.63;;;;;;;;;;5417456;26;20050;-65
2024/04/19 01:39:16;;;;;;;1.60;1.50;;;;;;;;;;5397896;26;20686;-63
2024/04/19 01:41:42;;;;;;;2.10;1.90;;;;;;;;;;5398649;26;19994;-64
2024/04/19 01:44:09;;;;;;;2.78;1.70;;;;;;;;;;5422775;26;20010;-64
2024/04/19 01:46:36;;;;;;;4.88;2.22;;;;;;;;;;5420329;26;20698;-64
2024/04/19 01:49:02;;;;;;;1.70;1.58;;;;;;;;;;5389190;26;20004;-64
2024/04/19 01:51:28;;;;;;;1.73;1.63;;;;;;;;;;5413974;26;20010;-64
2024/04/19 01:53:54;;;;;;;2.20;1.98;;;;;;;;;;5416352;26;20388;-64
2024/04/19 01:56:20;;;;;;;2.00;1.75;;;;;;;;;;5418889;26;20461;-64
2024/04/19 01:58:47;;;;;;;2.70;1.90;;;;;;;;;;5378103;26;20652;-64
2024/04/19 02:01:13;;;;;;;2.22;2.03;;;;;;;;;;5421350;26;20002;-64
2024/04/19 02:03:40;;;;;;;2.13;1.90;;;;;;;;;;5419965;26;20014;-64
2024/04/19 02:06:09;;;;;;;2.67;1.80;;;;;;;;;;5386198;26;20010;-64
2024/04/19 02:08:36;;;;;;;3.45;2.08;;;;;;;;;;5420978;26;19995;-64
2024/04/19 02:11:05;;;;;;;2.92;2.03;;;;;;;;;;5414905;26;20552;-65
2024/04/19 02:13:32;;;;;;;2.05;1.88;;;;;;;;;;5388691;26;19999;-64
2024/04/19 02:15:58;;;;;;;4.22;2.03;;;;;;;;;;5409486;26;20000;-64
2024/04/19 02:18:24;;;;;;;4.50;2.47;;;;;;;;;;5416174;26;20290;-64
2024/04/19 02:20:51;;;;;;;5.25;2.00;;;;;;;;;;5402519;26;20000;-64
2024/04/19 02:23:24;;;;;;;2.90;2.10;;;;;;;;;;5395907;26;20435;-64
2024/04/19 02:25:50;;;;;;;2.95;2.40;;;;;;;;;;5387158;26;20034;-64
2024/04/19 02:31:01;;;;;;;4.45;2.40;;;;;;;;;;5425973;26;20010;-64
2024/04/19 02:33:29;;;;;;;4.15;2.50;;;;;;;;;;5418516;26;20003;-64
2024/04/19 02:35:56;;;;;;;2.78;2.22;;;;;;;;;;5424132;26;19995;-64
2024/04/19 02:38:22;;;;;;;3.47;2.58;;;;;;;;;;5393747;26;20006;-64
2024/04/19 02:40:48;;;;;;;3.20;2.90;;;;;;;;;;5410056;26;19996;-63
2024/04/19 02:43:15;;;;;;;5.00;2.55;;;;;;;;;;5384930;26;19998;-63
2024/04/19 02:45:41;;;;;;;3.53;3.22;;;;;;;;;;5391932;26;20710;-64
2024/04/19 02:48:08;;;;;;;7.15;2.88;;;;;;;;;;5419889;26;20029;-68
2024/04/19 02:50:34;;;;;;;3.55;2.78;;;;;;;;;;5426643;26;20478;-64
2024/04/19 02:53:01;;;;;;;2.72;2.40;;;;;;;;;;5428370;26;20429;-63
2024/04/19 02:55:27;;;;;;;4.72;2.47;;;;;;;;;;5423292;26;20010;-64
2024/04/19 02:57:53;;;;;;;2.83;2.50;;;;;;;;;;5423105;26;20003;-63
2024/04/19 03:00:19;;;;;;;2.03;1.90;;;;;;;;;;5416943;26;20609;-64
2024/04/19 03:02:45;;;;;;;3.13;2.83;;;;;;;;;;5421308;26;19998;-63
2024/04/19 03:05:11;;;;;;;2.38;2.13;;;;;;;;;;5422219;26;19994;-64
2024/04/19 03:07:38;;;;;;;2.70;2.15;;;;;;;;;;5425670;26;20007;-64
2024/04/19 03:10:04;;;;;;;2.58;1.98;;;;;;;;;;5431727;26;20018;-63
2024/04/19 03:12:30;;;;;;;1.92;1.80;;;;;;;;;;5385819;26;20080;-65
2024/04/19 03:14:56;;;;;;;2.13;1.92;;;;;;;;;;5397707;26;19992;-64
2024/04/19 03:17:23;;;;;;;2.33;2.13;;;;;;;;;;5382901;26;20003;-64
2024/04/19 03:19:49;;;;;;;3.17;1.77;;;;;;;;;;5387687;26;20009;-64
2024/04/19 03:22:16;;;;;;;2.00;1.80;;;;;;;;;;5417142;26;19998;-64
2024/04/19 03:24:43;;;;;;;2.45;2.10;;;;;;;;;;5386771;26;20459;-63
2024/04/19 03:27:10;;;;;;;3.25;1.88;;;;;;;;;;5424148;26;20005;-70
2024/04/19 03:29:36;;;;;;;1.70;1.60;;;;;;;;;;5436454;26;20031;-70
2024/04/19 03:32:03;;;;;;;1.90;1.80;;;;;;;;;;5426003;26;19996;-70
2024/04/19 03:34:29;;;;;;;2.67;2.13;;;;;;;;;;5436945;26;20014;-70
2024/04/19 03:36:56;;;;;;;6.82;2.03;;;;;;;;;;5424668;26;20003;-70
2024/04/19 03:39:22;;;;;;;5.30;2.30;;;;;;;;;;5441105;26;20452;-70
2024/04/19 03:41:51;;;;;;;2.17;2.00;;;;;;;;;;5443982;26;20047;-70
2024/04/19 03:47:01;;;;;;;2.83;2.25;;;;;;;;;;5442352;26;20017;-70
2024/04/19 03:49:28;;;;;;;3.97;1.67;;;;;;;;;;5411965;26;19995;-70
2024/04/19 03:51:56;;;;;;;1.70;1.40;;;;;;;;;;5406803;26;20026;-70
2024/04/19 03:54:22;;;;;;;2.67;2.00;;;;;;;;;;5430919;26;20360;-71
2024/04/19 03:56:49;;;;;;;2.10;2.00;;;;;;;;;;5434999;26;20101;-70
2024/04/19 03:59:19;;;;;;;2.38;2.20;;;;;;;;;;5413905;26;19995;-70
2024/04/19 04:01:51;;;;;;;2.80;2.60;;;;;;;;;;5410231;26;20007;-64
2024/04/19 04:04:17;;;;;;;1.83;1.73;;;;;;;;;;5396939;26;20009;-64
2024/04/19 04:06:44;;;;;;;1.90;1.80;;;;;;;;;;5403203;26;20003;-64
2024/04/19 04:09:10;;;;;;;2.03;1.83;;;;;;;;;;5394548;26;20051;-64
2024/04/19 04:11:37;;;;;;;5.88;1.92;;;;;;;;;;5433078;26;21374;-64
2024/04/19 04:14:04;;;;;;;2.03;1.58;;;;;;;;;;5394758;26;20006;-64
2024/04/19 04:16:37;;;;;;;1.85;1.75;;;;;;;;;;5390597;26;20063;-64
2024/04/19 04:19:07;;;;;;;1.55;1.45;;;;;;;;;;5399636;26;19995;-64
2024/04/19 04:21:33;;;;;;;2.22;1.60;;;;;;;;;;5417306;26;20233;-64
2024/04/19 04:24:00;;;;;;;1.67;1.58;;;;;;;;;;5423288;26;19996;-64
2024/04/19 04:26:26;;;;;;;1.45;1.35;;;;;;;;;;5427931;26;20038;-64
2024/04/19 04:28:52;;;;;;;1.60;1.50;;;;;;;;;;5421270;26;20043;-64
2024/04/19 04:31:18;;;;;;;1.60;1.50;;;;;;;;;;5422743;26;20028;-64
2024/04/19 04:33:44;;;;;;;2.40;1.38;;;;;;;;;;5384946;26;20002;-64
2024/04/19 04:36:10;;;;;;;1.65;1.52;;;;;;;;;;5384997;26;20011;-64
2024/04/19 04:38:36;;;;;;;2.17;1.60;;;;;;;;;;5429252;26;20385;-64
2024/04/19 04:41:03;;;;;;;2.78;1.75;;;;;;;;;;5425497;26;20005;-64
2024/04/19 04:43:29;;;;;;;1.80;1.70;;;;;;;;;;5395930;26;20003;-64
2024/04/19 04:45:55;;;;;;;2.97;1.67;;;;;;;;;;5427142;26;20576;-64
2024/04/19 04:48:21;;;;;;;1.60;1.50;;;;;;;;;;5411760;26;20999;-64
2024/04/19 04:50:47;;;;;;;1.55;1.45;;;;;;;;;;5397276;26;20439;-64
2024/04/19 04:53:14;;;;;;;1.85;1.73;;;;;;;;;;5415024;26;20017;-64
2024/04/19 04:55:40;;;;;;;2.03;1.45;;;;;;;;;;5427320;26;20024;-64
2024/04/19 04:58:06;;;;;;;1.80;1.42;;;;;;;;;;5393516;26;19996;-64
2024/04/19 05:00:33;;;;;;;1.40;1.30;;;;;;;;;;5425338;26;20014;-64
2024/04/19 05:03:00;;;;;;;1.55;1.45;;;;;;;;;;5428179;26;20017;-65
2024/04/19 05:05:27;;;;;;;1.90;1.80;;;;;;;;;;5430876;26;20455;-64
2024/04/19 05:07:53;;;;;;;2.75;1.63;;;;;;;;;;5418422;26;20011;-64
2024/04/19 05:10:20;;;;;;;1.77;1.67;;;;;;;;;;5421233;26;21399;-64
2024/04/19 05:12:46;;;;;;;1.25;1.23;;;;;;;;;;5395375;26;19995;-64
2024/04/19 05:15:12;;;;;;;1.70;1.60;;;;;;;;;;5422147;26;20012;-64
2024/04/19 05:17:39;;;;;;;2.70;1.33;;;;;;;;;;5423211;26;20029;-63
2024/04/19 05:20:06;;;;;;;1.27;1.23;;;;;;;;;;5421859;26;20555;-64
2024/04/19 05:22:37;;;;;;;1.80;1.50;;;;;;;;;;5389072;26;20016;-64
2024/04/19 05:25:04;;;;;;;10.30;2.33;;;;;;;;;;5397780;26;20002;-70
2024/04/19 05:27:30;;;;;;;1.45;1.35;;;;;;;;;;5435558;26;20507;-70
2024/04/19 05:29:57;;;;;;;1.30;1.20;;;;;;;;;;5435251;26;20006;-70
2024/04/19 05:32:23;;;;;;;1.80;1.23;;;;;;;;;;5427761;26;19999;-70
2024/04/19 05:34:49;;;;;;;2.60;1.25;;;;;;;;;;5397208;26;19999;-71
2024/04/19 05:37:15;;;;;;;1.00;1.00;;;;;;;;;;5435851;26;20002;-70
2024/04/19 05:39:41;;;;;;;1.10;1.10;;;;;;;;;;5436155;26;20455;-71
2024/04/19 05:42:08;;;;;;;1.60;1.50;;;;;;;;;;5414905;26;19994;-70
2024/04/19 05:44:34;;;;;;;1.15;1.15;;;;;;;;;;5436576;26;20053;-70
2024/04/19 05:47:01;;;;;;;1.10;1.10;;;;;;;;;;5429834;26;20079;-70
2024/04/19 05:49:28;;;;;;;2.05;1.30;;;;;;;;;;5402024;26;20018;-70
2024/04/19 05:51:54;;;;;;;1.10;1.10;;;;;;;;;;5405660;26;20036;-70
2024/04/19 05:54:20;;;;;;;1.55;1.45;;;;;;;;;;5402285;26;20003;-71
2024/04/19 05:56:47;;;;;;;1.23;1.23;;;;;;;;;;5431460;26;20014;-71
2024/04/19 05:59:13;;;;;;;1.45;1.38;;;;;;;;;;5432277;26;20003;-71
2024/04/19 06:01:39;;;;;;;1.38;1.27;;;;;;;;;;5433239;26;20067;-68
2024/04/19 06:04:07;;;;;;;1.35;1.27;;;;;;;;;;5429912;26;20002;-69
2024/04/19 06:06:34;;;;;;;1.60;1.50;;;;;;;;;;5427085;26;20026;-70
2024/04/19 06:09:00;;;;;;;2.58;1.58;;;;;;;;;;5434517;26;20013;-69
2024/04/19 06:11:26;;;;;;;2.47;1.42;;;;;;;;;;5432704;26;19995;-69
2024/04/19 06:13:52;;;;;;;2.15;1.33;;;;;;;;;;5424362;26;20017;-70
2024/04/19 06:16:28;;;;;;;1.55;1.40;;;;;;;;;;5433902;26;20545;-70
2024/04/19 06:18:54;;;;;;;;;;;;;;;;;;5406506;26;20096;-70
2024/04/19 06:21:26;;;;;;;2.20;1.30;;;;;;;;;;5437587;26;19932;-64
2024/04/19 06:23:53;;;;;;;1.27;1.27;;;;;;;;;;5404926;26;19991;-69
2024/04/19 06:26:21;;;;;;;1.92;1.70;;;;;;;;;;5427663;26;20018;-69
2024/04/19 06:28:49;;;;;;;1.10;1.10;;;;;;;;;;5412138;26;20009;-70
2024/04/19 06:31:16;;;;;;;1.70;1.60;;;;;;;;;;5425038;26;20450;-70
2024/04/19 06:33:44;;;;;;;1.30;1.20;;;;;;;;;;5441610;26;20006;-69
2024/04/19 06:36:11;;;;;;;1.55;1.45;;;;;;;;;;5409049;26;19999;-71
2024/04/19 06:38:42;;;;;;;1.42;1.30;;;;;;;;;;5436476;26;20546;-71
2024/04/19 06:41:09;;;;;;;1.17;1.17;;;;;;;;;;5423652;26;19999;-74
2024/04/19 06:43:35;;;;;;;2.38;1.42;;;;;;;;;;5419625;26;20041;-71
2024/04/19 06:46:01;;;;;;;1.42;1.38;;;;;;;;;;5415987;26;19999;-72
2024/04/19 06:48:27;;;;;;;4.18;1.35;;;;;;;;;;5426003;26;19995;-73
2024/04/19 06:50:54;;;;;;;1.00;1.00;;;;;;;;;;5396514;26;20446;-67
2024/04/19 06:53:20;;;;;;;1.10;1.10;;;;;;;;;;5385244;26;20570;-69
2024/04/19 06:55:52;;;;;;;1.65;1.10;;;;;;;;;;5433079;26;20469;-68
2024/04/19 06:58:20;;;;;;;1.10;1.10;;;;;;;;;;5431768;26;20476;-68
2024/04/19 07:00:49;;;;;;;1.00;1.00;;;;;;;;;;5400348;26;20026;-67
2024/04/19 07:03:15;;;;;;;1.42;1.38;;;;;;;;;;5423653;26;20002;-67
2024/04/19 07:05:42;;;;;;;1.00;1.00;;;;;;;;;;5404409;26;20007;-67
2024/04/19 07:08:08;;;;;;;0.93;0.93;;;;;;;;;;5422369;26;20074;-68
2024/04/19 07:10:40;;;;;;;1.05;1.05;;;;;;;;;;5428615;26;20013;-67
2024/04/19 07:13:07;;;;;;;1.30;1.30;;;;;;;;;;5405462;26;20013;-67
2024/04/19 07:15:33;;;;;;;1.65;1.55;;;;;;;;;;5390608;26;20480;-67
2024/04/19 07:18:01;;;;;;;1.00;1.00;;;;;;;;;;5409508;26;20018;-66
2024/04/19 07:20:27;;;;;;;1.20;1.20;;;;;;;;;;5394792;26;19998;-67
2024/04/19 07:22:54;;;;;;;1.10;1.10;;;;;;;;;;5399794;26;19995;-67
2024/04/19 07:25:21;;;;;;;2.05;1.88;;;;;;;;;;5405565;26;20060;-67
2024/04/19 07:27:47;;;;;;;1.20;1.20;;;;;;;;;;5405541;26;20009;-67
2024/04/19 07:30:15;;;;;;;1.00;1.00;;;;;;;;;;5411640;26;20000;-68
2024/04/19 07:32:41;;;;;;;1.00;1.00;;;;;;;;;;5399458;26;19995;-67
2024/04/19 07:35:07;;;;;;;1.08;1.08;;;;;;;;;;5399965;26;20013;-68
2024/04/19 07:37:33;;;;;;;1.20;1.20;;;;;;;;;;5403738;26;19995;-64
2024/04/19 07:39:59;;;;;;;1.30;1.30;;;;;;;;;;5409878;26;20003;-64
2024/04/19 07:42:32;;;;;;;1.00;1.00;;;;;;;;;;5413992;26;20509;-65
2024/04/19 07:45:01;;;;;;;1.05;1.05;;;;;;;;;;5410893;26;20011;-67
2024/04/19 07:47:27;;;;;;;1.83;1.55;;;;;;;;;;5406919;26;20018;-67
2024/04/19 07:49:54;;;;;;;1.10;1.10;;;;;;;;;;5415230;26;20097;-67
2024/04/19 07:52:20;;;;;;;2.03;1.48;;;;;;;;;;5407949;26;20007;-64
2024/04/19 07:54:47;;;;;;;1.10;1.10;;;;;;;;;;5399144;26;19995;-64
2024/04/19 07:57:14;;;;;;;1.10;1.10;;;;;;;;;;5403795;26;20808;-65
2024/04/19 07:59:40;;;;;;;1.75;1.10;;;;;;;;;;5396706;26;21051;-65
2024/04/19 08:02:06;;;;;;;1.27;1.17;;;;;;;;;;5397308;26;20065;-64
2024/04/19 08:04:33;;;;;;;1.15;1.15;;;;;;;;;;5413238;26;20007;-65
2024/04/19 08:06:59;;;;;;;1.20;1.20;;;;;;;;;;5408234;26;19999;-65
2024/04/19 08:09:25;;;;;;;4.38;1.20;;;;;;;;;;5414599;26;20451;-65
2024/04/19 08:11:51;;;;;;;1.20;1.20;;;;;;;;;;5391636;26;20048;-65
2024/04/19 08:14:17;;;;;;;1.15;1.15;;;;;;;;;;5390301;26;19999;-66
2024/04/19 08:16:43;;;;;;;1.10;1.10;;;;;;;;;;5428436;26;20006;-66
2024/04/19 08:19:10;;;;;;;1.10;1.10;;;;;;;;;;5435164;26;20008;-65
2024/04/19 08:21:36;;;;;;;1.17;1.17;;;;;;;;;;5400001;26;20311;-65
2024/04/19 08:24:03;;;;;;;1.50;1.40;;;;;;;;;;5406297;26;20030;-64
2024/04/19 08:26:29;;;;;;;1.23;1.23;;;;;;;;;;5415510;26;20006;-65
2024/04/19 08:28:55;;;;;;;1.13;1.13;;;;;;;;;;5440957;26;19998;-65
2024/04/19 08:31:21;;;;;;;1.17;1.17;;;;;;;;;;5433564;26;20518;-65
2024/04/19 08:33:47;;;;;;;2.13;1.20;;;;;;;;;;5412585;26;20075;-65
2024/04/19 08:36:14;;;;;;;1.05;1.05;;;;;;;;;;5441760;26;20022;-65
2024/04/19 08:38:40;;;;;;;1.20;1.10;;;;;;;;;;5434567;26;20010;-64
2024/04/19 08:41:08;;;;;;;1.00;1.00;;;;;;;;;;5394363;26;20450;-65
2024/04/19 08:43:38;;;;;;;1.20;1.20;;;;;;;;;;5435554;26;20296;-65
2024/04/19 08:46:05;;;;;;;0.90;0.90;;;;;;;;;;5430572;26;20078;-65
2024/04/19 08:48:36;;;;;;;1.00;1.00;;;;;;;;;;5439792;26;20025;-65
2024/04/19 08:51:03;;;;;;;1.05;1.05;;;;;;;;;;5404635;26;20372;-65
2024/04/19 08:53:31;;;;;;;1.00;1.00;;;;;;;;;;5427666;26;20437;-65
2024/04/19 08:55:58;;;;;;;4.78;1.40;;;;;;;;;;5434967;26;20021;-65
2024/04/19 08:58:25;;;;;;;1.10;1.10;;;;;;;;;;5436067;26;20003;-65
2024/04/19 09:00:51;;;;;;;1.00;1.00;;;;;;;;;;5445454;26;20054;-65
2024/04/19 09:03:18;;;;;;;2.88;1.50;;;;;;;;;;5417440;26;20010;-65
2024/04/19 09:05:45;;;;;;;1.10;1.10;;;;;;;;;;5419662;26;19999;-66
2024/04/19 09:08:12;;;;;;;1.08;1.08;;;;;;;;;;5409416;26;20003;-67
2024/04/19 09:10:41;;;;;;;1.10;1.10;;;;;;;;;;5445427;26;20006;-64
2024/04/19 09:13:08;;;;;;;1.10;1.10;;;;;;;;;;5453721;26;20006;-70
2024/04/19 09:15:36;;;;;;;1.10;1.10;;;;;;;;;;5455245;26;20000;-69
2024/04/19 09:18:04;;;;;;;1.10;1.10;;;;;;;;;;5424816;26;19998;-69
2024/04/19 09:20:30;;;;;;;1.00;1.00;;;;;;;;;;5398753;26;20055;-69
2024/04/19 09:22:56;;;;;;;1.08;1.08;;;;;;;;;;5416332;26;20035;-69
2024/04/19 09:25:22;;;;;;;1.30;1.30;;;;;;;;;;5429938;26;19995;-69
2024/04/19 09:27:49;;;;;;;1.00;1.00;;;;;;;;;;5423979;26;20037;-69
2024/04/19 09:30:16;;;;;;;1.30;1.10;;;;;;;;;;5429991;26;20006;-69
2024/04/19 09:32:42;;;;;;;1.55;1.13;;;;;;;;;;5423536;26;20598;-69
2024/04/19 09:35:09;;;;;;;1.20;1.20;;;;;;;;;;5418187;26;20462;-68
2024/04/19 09:37:36;;;;;;;0.95;0.95;;;;;;;;;;5419391;26;19999;-69
2024/04/19 09:40:02;;;;;;;1.48;1.30;;;;;;;;;;5427501;26;20010;-69
2024/04/19 09:42:33;;;;;;;1.35;1.25;;;;;;;;;;5421105;26;20092;-69
2024/04/19 09:45:01;;;;;;;2.33;1.38;;;;;;;;;;5428698;26;20047;-69
2024/04/19 09:47:30;;;;;;;1.20;1.20;;;;;;;;;;5397871;26;20006;-69
2024/04/19 09:49:57;;;;;;;4.72;1.33;;;;;;;;;;5385537;26;20010;-69
2024/04/19 09:52:26;;;;;;;1.02;1.02;;;;;;;;;;5434376;26;20013;-69
2024/04/19 09:55:17;;;;;;;1.30;1.30;;;;;;;;;;5422045;26;20086;-69
2024/04/19 09:57:46;;;;;;;1.10;1.10;;;;;;;;;;5395897;26;20002;-69
2024/04/19 10:00:14;;;;;;;1.25;1.25;;;;;;;;;;5415661;26;20458;-69
2024/04/19 10:02:43;;;;;;;1.25;1.20;;;;;;;;;;5390689;26;20000;-70
2024/04/19 10:05:10;;;;;;;1.13;1.13;;;;;;;;;;5425415;26;20019;-70
2024/04/19 10:07:37;;;;;;;1.30;1.30;;;;;;;;;;5433124;26;20042;-70
2024/04/19 10:10:04;;;;;;;1.00;1.00;;;;;;;;;;5386256;26;20003;-70
2024/04/19 10:12:30;;;;;;;1.50;1.40;;;;;;;;;;5424703;26;20003;-69
2024/04/19 10:14:56;;;;;;;1.58;1.48;;;;;;;;;;5423795;26;19995;-69
2024/04/19 10:17:23;;;;;;;1.40;1.30;;;;;;;;;;5436147;26;19999;-70
2024/04/19 10:19:49;;;;;;;1.00;1.00;;;;;;;;;;5429626;26;20009;-71
2024/04/19 10:22:21;;;;;;;1.52;1.30;;;;;;;;;;5425193;26;19999;-69
2024/04/19 10:24:52;;;;;;;1.83;1.73;;;;;;;;;;5433689;26;20338;-70
2024/04/19 10:27:25;;;;;;;1.10;1.10;;;;;;;;;;5423610;26;20076;-69
2024/04/19 10:29:51;;;;;;;1.20;1.20;;;;;;;;;;5412196;26;19991;-69
2024/04/19 10:32:18;;;;;;;1.40;1.30;;;;;;;;;;5433067;26;20414;-68
2024/04/19 10:34:45;;;;;;;1.20;1.20;;;;;;;;;;5404118;26;19999;-69
2024/04/19 10:37:12;;;;;;;1.23;1.20;;;;;;;;;;5423937;26;20388;-69
2024/04/19 10:39:41;;;;;;;1.40;1.40;;;;;;;;;;5386456;26;20009;-69
2024/04/19 10:42:08;;;;;;;1.85;1.70;;;;;;;;;;5432495;26;20881;-70
2024/04/19 10:44:39;;;;;;;1.60;1.50;;;;;;;;;;5442711;26;20526;-72
2024/04/19 10:47:06;;;;;;;3.85;1.63;;;;;;;;;;5424191;26;20013;-69
2024/04/19 10:49:32;;;;;;;1.17;1.15;;;;;;;;;;5431044;26;20096;-69
2024/04/19 10:51:59;;;;;;;2.05;1.40;;;;;;;;;;5389339;26;20465;-69
2024/04/19 10:54:26;;;;;;;1.67;1.55;;;;;;;;;;5425992;26;19998;-69
2024/04/19 10:56:54;;;;;;;3.58;1.70;;;;;;;;;;5423705;26;20034;-69
2024/04/19 10:59:21;;;;;;;2.45;1.40;;;;;;;;;;5399606;26;19999;-69
2024/04/19 11:01:49;;;;;;;1.70;1.60;;;;;;;;;;5397420;26;20357;-69
2024/04/19 11:04:15;;;;;;;3.15;1.75;;;;;;;;;;5433170;26;20007;-69
2024/04/19 11:06:41;;;;;;;5.07;1.70;;;;;;;;;;5429464;26;20081;-69
2024/04/19 11:09:08;;;;;;;2.17;1.90;;;;;;;;;;5425201;26;20457;-70
2024/04/19 11:11:37;;;;;;;3.58;1.58;;;;;;;;;;5414463;26;20002;-70
2024/04/19 11:14:07;;;;;;;1.80;1.70;;;;;;;;;;5425014;26;20009;-69
2024/04/19 11:16:34;;;;;;;2.60;1.80;;;;;;;;;;5392736;26;20185;-69
2024/04/19 11:19:00;;;;;;;2.28;1.60;;;;;;;;;;5416379;26;20368;-70
2024/04/19 11:21:26;;;;;;;3.50;1.73;;;;;;;;;;5377796;26;19999;-69
2024/04/19 11:23:52;;;;;;;2.65;1.45;;;;;;;;;;5419844;26;20539;-69
2024/04/19 11:26:19;;;;;;;3.05;1.50;;;;;;;;;;5423988;26;20006;-70
2024/04/19 11:28:49;;;;;;;1.60;1.50;;;;;;;;;;5432647;26;20015;-70
2024/04/19 11:31:18;;;;;;;3.00;1.70;;;;;;;;;;5389107;26;20051;-70
2024/04/19 11:33:44;;;;;;;2.03;1.60;;;;;;;;;;5392722;26;20323;-70
2024/04/19 11:36:12;;;;;;;1.40;1.40;;;;;;;;;;5421220;26;20391;-70
2024/04/19 11:38:38;;;;;;;2.25;1.60;;;;;;;;;;5422057;26;20003;-71
2024/04/19 11:41:04;;;;;;;1.50;1.40;;;;;;;;;;5423519;26;20329;-71
2024/04/19 11:43:31;;;;;;;2.58;1.40;;;;;;;;;;5383813;26;19995;-70
2024/04/19 11:45:57;;;;;;;1.42;1.33;;;;;;;;;;5418892;26;20518;-70
2024/04/19 11:48:25;;;;;;;2.22;2.05;;;;;;;;;;5415615;26;19999;-71
2024/04/19 11:50:53;;;;;;;1.63;1.52;;;;;;;;;;5425493;26;20006;-70
2024/04/19 11:53:19;;;;;;;1.55;1.45;;;;;;;;;;5410805;26;20330;-70
2024/04/19 11:55:50;;;;;;;1.52;1.42;;;;;;;;;;5424222;26;20000;-69
2024/04/19 11:58:16;;;;;;;1.23;1.23;;;;;;;;;;5417370;26;19999;-70
2024/04/19 12:00:42;;;;;;;2.33;1.48;;;;;;;;;;5424345;26;20017;-70
2024/04/19 12:03:09;;;;;;;2.35;2.03;;;;;;;;;;5388781;26;20011;-69
2024/04/19 12:05:35;;;;;;;1.58;1.40;;;;;;;;;;5424373;26;20015;-70
2024/04/19 12:08:02;;;;;;;2.00;1.00;;;;;;;;;;5422969;26;20091;-70
2024/04/19 12:10:29;;;;;;;2.22;1.17;;;;;;;;;;5421211;26;20041;-70
2024/04/19 12:12:55;;;;;;;2.05;1.30;;;;;;;;;;5431575;26;20003;-70
2024/04/19 12:15:21;;;;;;;2.22;1.40;;;;;;;;;;5377623;26;20084;-70
2024/04/19 12:17:47;;;;;;;2.63;1.67;;;;;;;;;;5388776;26;20087;-70
2024/04/19 12:20:14;;;;;;;1.88;1.70;;;;;;;;;;5380863;26;20011;-70
2024/04/19 12:22:40;;;;;;;5.35;1.80;;;;;;;;;;5393602;26;20382;-70
2024/04/19 12:25:06;;;;;;;3.10;1.83;;;;;;;;;;5388336;26;19992;-70
2024/04/19 12:27:32;;;;;;;2.85;1.98;;;;;;;;;;5385392;26;20057;-70
2024/04/19 12:29:59;;;;;;;3.28;1.88;;;;;;;;;;5384948;26;19993;-70
2024/04/19 12:32:25;;;;;;;2.72;2.30;;;;;;;;;;5414963;26;20003;-70
2024/04/19 12:34:51;;;;;;;3.67;1.92;;;;;;;;;;5379105;26;20414;-69
2024/04/19 12:37:17;;;;;;;4.22;2.40;;;;;;;;;;5390825;26;20526;-70
2024/04/19 12:39:44;;;;;;;4.88;2.20;;;;;;;;;;5394041;26;19996;-69
2024/04/19 12:42:10;;;;;;;3.95;2.30;;;;;;;;;;5397357;26;20096;-70
2024/04/19 12:44:36;;;;;;;3.08;2.03;;;;;;;;;;5384872;26;20053;-70
2024/04/19 12:47:02;;;;;;;2.65;2.40;;;;;;;;;;5380223;26;20112;-70
2024/04/19 12:49:29;;;;;;;2.80;2.00;;;;;;;;;;5383187;26;19996;-71
2024/04/19 12:51:55;;;;;;;2.95;1.85;;;;;;;;;;5381332;26;20000;-70
2024/04/19 12:54:21;;;;;;;2.28;1.92;;;;;;;;;;5389470;26;19999;-70
2024/04/19 12:56:48;;;;;;;2.45;1.95;;;;;;;;;;5386582;26;20043;-70
2024/04/19 12:59:14;;;;;;;1.80;1.70;;;;;;;;;;5388894;26;19995;-70
2024/04/19 13:01:40;;;;;;;2.10;1.90;;;;;;;;;;5377413;26;19996;-70
2024/04/19 13:04:07;;;;;;;1.75;1.65;;;;;;;;;;5394127;26;20730;-70
2024/04/19 13:06:33;;;;;;;1.70;1.60;;;;;;;;;;5387304;26;20008;-70
2024/04/19 13:09:00;;;;;;;1.90;1.80;;;;;;;;;;5381600;26;20072;-70
2024/04/19 13:11:26;;;;;;;2.45;1.58;;;;;;;;;;5385007;26;20615;-70
2024/04/19 13:13:57;;;;;;;2.83;2.17;;;;;;;;;;5385813;26;20304;-70
2024/04/19 13:16:23;;;;;;;1.70;1.60;;;;;;;;;;5431715;26;19994;-70
2024/04/19 13:18:50;;;;;;;1.60;1.50;;;;;;;;;;5431045;26;20413;-70
2024/04/19 13:21:16;;;;;;;1.50;1.40;;;;;;;;;;5386011;26;19995;-69
2024/04/19 13:23:42;;;;;;;1.63;1.52;;;;;;;;;;5415892;26;20089;-70
2024/04/19 13:26:09;;;;;;;1.60;1.50;;;;;;;;;;5427739;26;20251;-70
2024/04/19 13:28:38;;;;;;;3.20;1.70;;;;;;;;;;5418421;26;20003;-70
2024/04/19 13:31:05;;;;;;;2.17;1.38;;;;;;;;;;5421170;26;20010;-70
2024/04/19 13:33:31;;;;;;;1.80;1.70;;;;;;;;;;5412783;26;20083;-69
2024/04/19 13:35:57;;;;;;;2.30;1.65;;;;;;;;;;5419199;26;20435;-70
2024/04/19 13:38:23;;;;;;;4.15;2.15;;;;;;;;;;5423993;26;20031;-70
2024/04/19 13:40:49;;;;;;;2.30;1.83;;;;;;;;;;5421847;26;20406;-70
2024/04/19 13:43:15;;;;;;;4.25;2.50;;;;;;;;;;5423062;26;20490;-70
2024/04/19 13:45:41;;;;;;;3.05;2.28;;;;;;;;;;5425925;26;20009;-70
2024/04/19 13:48:08;;;;;;;2.47;2.28;;;;;;;;;;5393051;26;20537;-70
2024/04/19 13:50:34;;;;;;;3.35;2.33;;;;;;;;;;5387697;26;20043;-70
2024/04/19 13:53:04;;;;;;;2.70;2.50;;;;;;;;;;5418571;26;20007;-70
2024/04/19 13:55:31;;;;;;;2.38;2.17;;;;;;;;;;5391415;26;20013;-70
2024/04/19 13:57:57;;;;;;;2.25;2.05;;;;;;;;;;5410288;26;20078;-70
2024/04/19 14:00:23;;;;;;;3.65;1.85;;;;;;;;;;5398685;26;20865;-70
2024/04/19 14:02:49;;;;;;;1.88;1.77;;;;;;;;;;5425403;26;21126;-70
2024/04/19 14:05:16;;;;;;;1.80;1.70;;;;;;;;;;5412856;26;19999;-71
2024/04/19 14:07:42;;;;;;;1.70;1.60;;;;;;;;;;5390268;26;20424;-71
2024/04/19 14:10:08;;;;;;;1.60;1.50;;;;;;;;;;5422243;26;20006;-71
2024/04/19 14:12:34;;;;;;;2.53;2.22;;;;;;;;;;5427613;26;19999;-71
2024/04/19 14:15:01;;;;;;;2.40;2.00;;;;;;;;;;5429174;26;19999;-70
2024/04/19 14:17:27;;;;;;;2.22;2.03;;;;;;;;;;5427233;26;19995;-68
2024/04/19 14:19:54;;;;;;;1.73;1.63;;;;;;;;;;5408118;26;20011;-69
2024/04/19 14:22:20;;;;;;;0.95;0.95;;;;;;;;;;5430296;26;20003;-69
2024/04/19 14:24:46;;;;;;;1.20;1.20;;;;;;;;;;5425809;26;21064;-68
2024/04/19 14:27:13;;;;;;;1.40;1.40;;;;;;;;;;5415510;26;20510;-69
2024/04/19 14:29:39;;;;;;;1.48;1.38;;;;;;;;;;5426287;26;20031;-69
2024/04/19 14:32:05;;;;;;;1.00;1.00;;;;;;;;;;5417238;26;20633;-69
2024/04/19 14:34:31;;;;;;;1.45;1.35;;;;;;;;;;5430450;26;20003;-69
2024/04/19 14:36:58;;;;;;;1.40;1.30;;;;;;;;;;5383323;26;19991;-68
2024/04/19 14:39:24;;;;;;;2.15;1.50;;;;;;;;;;5422236;26;19998;-69
2024/04/19 14:41:51;;;;;;;2.40;1.38;;;;;;;;;;5419615;26;20010;-69
2024/04/19 14:44:17;;;;;;;1.52;1.30;;;;;;;;;;5414986;26;20018;-70
2024/04/19 14:46:45;;;;;;;1.10;1.10;;;;;;;;;;5422761;26;20074;-69